Main page
METAR-TAF:

METAR-TAF

Airports :

Ángel S. Adami Airport

Montevideo, Uruguay

latitude: 34-47S, longitude: 056-15W, elevation: 53 m

Current weather observation

The report was made 5 hours and 30 minutes ago, at 22:00 UTC
Wind 12 kt from the East/Southeast
Temperature 15°C
Humidity 82%
Pressure 1016 hPa
Visibility 10 km or more
no clouds below 1500 m and no cumulonimbus

METAR: SUAA 252200Z 11012KT CAVOK 15/12 Q1016

Time: 00:30 (03:30 UTC)

Forecast

The report was made 3 hours and 55 minutes ago, at 23:35 UTC
Forecast valid from 26 at 00 UTC to 26 at 24 UTC
Wind 5 kt from the East
Visibility 10 km or more
no clouds below 1500 m and no cumulonimbus
Temporary
from 26 at 01 UTC to 26 at 11 UTC
Wind 5 kt from the North
Visibility: 3000 m
mist
Temporary
from 26 at 04 UTC to 26 at 10 UTC
Visibility: 0800 m
Broken clouds at a height of 300 ft
fog

TAF: SUAA 252335Z 2600/2624 08005KT CAVOK TX23/2618Z TN10/2610Z TEMPO 2601/2611 01005KT 3000 BR NSC TEMPO 2604/2610 0800 FG BKN003

Weather observations and forecasts of more than 4000 airports (METAR and TAF reports).

The available stations are represented by yellow and red dots on the map.

Hover mouse over dot to see the name of the station.

Then click to see weather observations and forecasts.

To change the map : click on the green buttons with a black cross to zoom in, on the green button with a dash to zoom out, or on the green arrows for adjacent maps.


METAR-TAF: